Time;durP1;ratioP1;P1;durP2;ratioP2;P2;SDS_P1;SDS_P2;PMS_P1;PMS_P2;Temp;Humidity;BMP_temperature;BMP_pressure;BME280_temperature;BME280_humidity;BME280_pressure;Samples;Min_cycle;Max_cycle;Signal;HPM_P1;HPM_P2
2023/06/08 00:01:55;;;;;;;14.10;12.80;;;15.80;99.90;;;;;;5075014;28;20555;-73
2023/06/08 00:04:22;;;;;;;14.20;12.57;;;15.60;99.90;;;;;;5075328;28;20262;-73
2023/06/08 00:06:52;;;;;;;12.83;11.73;;;15.50;99.90;;;;;;5075240;28;20198;-73
2023/06/08 00:09:19;;;;;;;13.60;12.40;;;15.50;99.90;;;;;;5075417;28;20288;-72
2023/06/08 00:11:46;;;;;;;14.77;13.27;;;15.40;99.90;;;;;;5075248;28;20228;-73
2023/06/08 00:14:13;;;;;;;14.03;12.73;;;15.50;99.90;;;;;;5075064;28;20223;-73
2023/06/08 00:16:40;;;;;;;14.03;12.60;;;15.40;99.90;;;;;;5075254;28;20220;-73
2023/06/08 00:19:07;;;;;;;13.60;12.20;;;15.40;99.90;;;;;;5074984;28;20679;-72
2023/06/08 00:21:33;;;;;;;14.23;13.03;;;15.30;99.90;;;;;;5075193;28;20263;-73
2023/06/08 00:24:02;;;;;;;14.33;13.03;;;15.10;99.90;;;;;;5075058;28;20201;-73
2023/06/08 00:26:29;;;;;;;15.00;13.43;;;15.00;99.90;;;;;;5074959;28;20232;-73
2023/06/08 00:28:55;;;;;;;15.70;14.20;;;15.00;99.90;;;;;;5078471;28;20223;-73
2023/06/08 00:31:22;;;;;;;14.20;13.00;;;15.10;99.90;;;;;;5078657;28;20200;-73
2023/06/08 00:33:49;;;;;;;14.27;12.90;;;15.10;99.90;;;;;;5074735;28;20233;-73
2023/06/08 00:36:15;;;;;;;14.43;13.00;;;15.30;99.90;;;;;;5074693;28;20280;-73
2023/06/08 00:38:42;;;;;;;14.37;13.17;;;15.30;99.90;;;;;;5074614;28;20843;-73
2023/06/08 00:41:10;;;;;;;14.07;12.77;;;15.30;99.90;;;;;;5074430;28;20229;-73
2023/06/08 00:43:37;;;;;;;13.65;12.35;;;15.20;99.90;;;;;;5074446;28;20229;-73
2023/06/08 00:46:04;;;;;;;14.17;12.90;;;15.20;99.90;;;;;;5074579;28;20229;-72
2023/06/08 00:48:31;;;;;;;13.60;12.43;;;15.20;99.90;;;;;;5074537;28;20564;-73
2023/06/08 00:51:00;;;;;;;14.07;12.77;;;15.20;99.90;;;;;;5074444;28;20243;-73
2023/06/08 00:53:28;;;;;;;14.10;12.80;;;15.20;99.90;;;;;;5074104;28;20229;-73
2023/06/08 00:55:57;;;;;;;13.77;12.47;;;15.10;99.90;;;;;;5074157;28;20251;-72
2023/06/08 00:58:25;;;;;;;14.80;13.27;;;15.00;99.90;;;;;;5074248;28;20225;-72
2023/06/08 01:00:59;;;;;;;13.53;12.27;;;14.90;99.90;;;;;;5074296;28;20213;-73
2023/06/08 01:03:29;;;;;;;14.53;13.30;;;14.90;99.90;;;;;;5074255;28;20197;-73
2023/06/08 01:05:57;;;;;;;15.00;13.70;;;14.80;99.90;;;;;;5074053;28;20656;-72
2023/06/08 01:08:32;;;;;;;14.63;13.40;;;14.70;99.90;;;;;;5073853;28;20232;-73
2023/06/08 01:11:12;;;;;;;14.13;12.90;;;14.40;99.90;;;;;;5074124;28;20200;-73
2023/06/08 01:13:49;;;;;;;15.57;13.97;;;14.40;99.90;;;;;;5073959;28;20209;-73
2023/06/08 01:16:17;;;;;;;14.97;13.47;;;14.30;99.90;;;;;;5073298;28;20611;-73
2023/06/08 01:18:47;;;;;;;15.73;14.23;;;14.20;99.90;;;;;;5073581;28;20260;-72
2023/06/08 01:21:24;;;;;;;15.03;13.63;;;14.20;99.90;;;;;;5073700;28;20201;-73
2023/06/08 01:24:16;;;;;;;16.03;14.37;;;14.10;99.90;;;;;;5073609;28;20660;-73
2023/06/08 01:26:44;;;;;;;15.83;14.17;;;14.20;99.90;;;;;;5069967;28;20668;-72
2023/06/08 01:29:13;;;;;;;15.63;14.23;;;14.30;99.90;;;;;;5073488;28;20236;-72
2023/06/08 01:31:40;;;;;;;15.80;13.60;;;14.40;99.90;;;;;;5073596;28;20204;-73
2023/06/08 01:34:07;;;;;;;15.27;13.90;;;14.40;99.90;;;;;;5073543;28;20229;-72
2023/06/08 01:36:44;;;;;;;15.67;14.27;;;14.40;99.90;;;;;;5073518;28;20242;-73
2023/06/08 01:39:21;;;;;;;15.63;14.23;;;14.30;99.90;;;;;;5073415;28;20258;-73
2023/06/08 01:41:50;;;;;;;17.10;15.50;;;14.20;99.90;;;;;;5073362;28;20271;-72
2023/06/08 01:44:21;;;;;;;16.60;15.10;;;14.10;99.90;;;;;;5073291;28;20228;-73
2023/06/08 01:46:55;;;;;;;17.37;15.80;;;14.00;99.90;;;;;;5073360;28;20232;-73
2023/06/08 01:49:23;;;;;;;16.23;14.77;;;14.10;99.90;;;;;;5073205;28;20208;-73
2023/06/08 01:51:50;;;;;;;17.27;15.67;;;14.10;99.90;;;;;;5073179;28;20613;-72
2023/06/08 01:54:18;;;;;;;16.70;15.20;;;14.00;99.90;;;;;;5072905;28;20259;-73
2023/06/08 01:56:44;;;;;;;18.03;15.50;;;14.00;99.90;;;;;;5072996;28;20649;-73
2023/06/08 01:59:11;;;;;;;16.10;14.70;;;14.00;99.90;;;;;;5073058;28;20220;-72
2023/06/08 02:01:38;;;;;;;16.07;14.77;;;13.90;99.90;;;;;;5073030;28;20257;-73
2023/06/08 02:04:04;;;;;;;17.77;16.03;;;13.90;99.90;;;;;;5073037;28;20228;-73
2023/06/08 02:06:31;;;;;;;16.90;15.30;;;13.80;99.90;;;;;;5072826;28;20233;-72
2023/06/08 02:08:58;;;;;;;17.37;15.80;;;13.80;99.90;;;;;;5073047;28;20205;-73
2023/06/08 02:11:26;;;;;;;18.33;16.33;;;13.80;99.90;;;;;;5073038;28;20193;-72
2023/06/08 02:13:53;;;;;;;17.23;15.73;;;13.90;99.90;;;;;;5072815;28;20270;-73
2023/06/08 02:16:20;;;;;;;18.30;16.50;;;13.80;99.90;;;;;;5072846;28;20197;-73
2023/06/08 02:18:46;;;;;;;16.87;15.37;;;13.70;99.90;;;;;;5072616;28;20228;-71
2023/06/08 02:21:13;;;;;;;17.17;15.30;;;13.80;99.90;;;;;;5072640;28;20675;-72
2023/06/08 02:23:40;;;;;;;18.30;16.43;;;13.90;99.90;;;;;;5072378;28;20255;-72
2023/06/08 02:26:08;;;;;;;26.23;16.67;;;13.80;99.90;;;;;;5072548;28;20197;-72
2023/06/08 02:28:36;;;;;;;20.33;17.47;;;13.60;99.90;;;;;;5071824;28;20274;-72
2023/06/08 02:31:03;;;;;;;17.60;16.00;;;13.40;99.90;;;;;;5072710;28;20215;-72
2023/06/08 02:33:30;;;;;;;18.30;16.60;;;13.40;99.90;;;;;;5072642;28;20201;-71
2023/06/08 02:35:57;;;;;;;19.13;17.10;;;13.30;99.90;;;;;;5072421;28;20201;-72
2023/06/08 02:38:23;;;;;;;18.87;16.87;;;13.20;99.90;;;;;;5072559;28;20225;-72
2023/06/08 02:40:50;;;;;;;18.07;16.20;;;13.10;99.90;;;;;;5072792;28;20243;-72
2023/06/08 02:43:18;;;;;;;17.17;15.37;;;13.30;99.90;;;;;;5072635;28;20258;-71
2023/06/08 02:45:46;;;;;;;18.40;16.50;;;13.30;99.90;;;;;;5072694;28;20534;-71
2023/06/08 02:48:12;;;;;;;19.33;17.63;;;13.10;99.90;;;;;;5072402;28;20201;-72
2023/06/08 02:50:39;;;;;;;18.10;16.60;;;13.10;99.90;;;;;;5072610;28;20193;-71
2023/06/08 02:53:06;;;;;;;19.47;17.70;;;13.20;99.90;;;;;;5072422;28;20272;-72
2023/06/08 02:55:34;;;;;;;18.40;16.80;;;13.30;99.90;;;;;;5072552;28;20238;-71
2023/06/08 02:58:02;;;;;;;19.27;17.47;;;13.30;99.90;;;;;;5072560;28;20256;-71
2023/06/08 03:00:29;;;;;;;19.77;17.70;;;13.10;99.90;;;;;;5072320;28;20197;-71
2023/06/08 03:02:59;;;;;;;19.27;17.57;;;13.00;99.90;;;;;;5072499;28;20208;-71
2023/06/08 03:05:25;;;;;;;19.77;17.83;;;13.00;99.90;;;;;;5072405;28;20200;-72
2023/06/08 03:07:52;;;;;;;20.33;18.50;;;13.00;99.90;;;;;;5072543;28;20208;-72
2023/06/08 03:10:19;;;;;;;19.50;17.70;;;12.90;99.90;;;;;;5072222;28;20239;-72
2023/06/08 03:12:46;;;;;;;20.73;18.93;;;13.00;99.90;;;;;;5072317;28;20209;-72
2023/06/08 03:15:22;;;;;;;18.63;17.03;;;12.90;99.90;;;;;;5072344;28;20303;-72
2023/06/08 03:17:49;;;;;;;19.43;17.77;;;12.90;99.90;;;;;;5071973;28;20220;-71
2023/06/08 03:20:18;;;;;;;19.57;17.67;;;12.90;99.90;;;;;;5072247;28;20201;-72
2023/06/08 03:22:45;;;;;;;20.03;18.23;;;12.90;99.90;;;;;;5072146;28;20225;-72
2023/06/08 03:25:15;;;;;;;19.27;17.57;;;13.00;99.90;;;;;;5072108;28;20280;-71
2023/06/08 03:27:41;;;;;;;19.80;17.77;;;13.20;99.90;;;;;;5072054;28;20193;-71
2023/06/08 03:30:10;;;;;;;18.93;17.13;;;13.30;99.90;;;;;;5071977;28;20533;-71
2023/06/08 03:32:36;;;;;;;18.97;17.33;;;13.30;99.90;;;;;;5072184;28;20265;-71
2023/06/08 03:35:04;;;;;;;18.97;17.00;;;13.40;99.90;;;;;;5072113;28;20258;-71
2023/06/08 03:37:32;;;;;;;19.20;17.37;;;13.50;99.90;;;;;;5071966;28;20197;-72
2023/06/08 03:39:58;;;;;;;19.03;17.13;;;13.50;99.90;;;;;;5074520;28;20255;-72
2023/06/08 03:42:25;;;;;;;19.30;17.50;;;13.60;99.90;;;;;;5075541;28;20259;-71
2023/06/08 03:44:51;;;;;;;17.37;15.63;;;13.60;99.90;;;;;;5075425;28;20656;-71
2023/06/08 03:47:19;;;;;;;17.57;15.97;;;13.80;99.90;;;;;;5075712;28;20255;-71
2023/06/08 03:49:46;;;;;;;17.53;15.83;;;13.80;99.90;;;;;;5075576;28;20255;-72
2023/06/08 03:52:12;;;;;;;16.53;15.03;;;13.90;99.90;;;;;;5075563;28;20204;-72
2023/06/08 03:54:40;;;;;;;19.67;17.80;;;14.00;99.90;;;;;;5075298;28;20229;-72
2023/06/08 03:57:07;;;;;;;17.43;15.67;;;14.10;99.90;;;;;;5075341;28;20197;-72
2023/06/08 03:59:34;;;;;;;17.00;15.50;;;14.10;99.90;;;;;;5082739;28;20233;-72
2023/06/08 04:02:00;;;;;;;17.03;15.43;;;14.10;99.90;;;;;;5075399;28;20201;-72
2023/06/08 04:04:28;;;;;;;16.37;14.83;;;14.10;99.90;;;;;;5075388;28;20213;-72
2023/06/08 04:06:57;;;;;;;16.67;15.07;;;14.30;99.90;;;;;;5075598;28;20251;-72
2023/06/08 04:09:24;;;;;;;15.77;14.30;;;14.40;99.90;;;;;;5075091;28;20321;-72
2023/06/08 04:11:52;;;;;;;15.80;14.13;;;14.40;99.90;;;;;;5075036;28;20284;-71
2023/06/08 04:14:18;;;;;;;14.80;13.50;;;14.50;99.90;;;;;;5075208;28;20584;-71
2023/06/08 04:16:45;;;;;;;15.53;14.23;;;14.60;99.90;;;;;;5075165;28;20228;-72
2023/06/08 04:19:12;;;;;;;15.47;13.93;;;14.60;99.90;;;;;;5074799;28;20232;-72
2023/06/08 04:21:39;;;;;;;16.03;14.57;;;14.70;99.90;;;;;;5074905;28;20197;-72
2023/06/08 04:24:06;;;;;;;16.23;14.70;;;14.70;99.90;;;;;;5074860;28;20225;-71
2023/06/08 04:26:33;;;;;;;16.17;14.63;;;14.80;99.90;;;;;;5074611;28;20553;-71
2023/06/08 04:29:03;;;;;;;17.37;15.67;;;14.80;99.90;;;;;;5074923;28;20287;-72
2023/06/08 04:31:30;;;;;;;15.80;14.40;;;14.80;99.90;;;;;;5074742;28;20596;-71
2023/06/08 04:33:57;;;;;;;15.73;14.43;;;15.00;99.90;;;;;;5074696;28;20278;-72
2023/06/08 04:36:23;;;;;;;16.53;14.13;;;15.10;99.90;;;;;;5074696;28;20193;-72
2023/06/08 04:38:50;;;;;;;16.17;13.23;;;15.30;99.90;;;;;;5074474;28;20572;-72
2023/06/08 04:41:18;;;;;;;17.07;15.37;;;15.30;99.90;;;;;;5074941;28;20266;-72
2023/06/08 04:43:45;;;;;;;15.57;14.27;;;15.30;99.90;;;;;;5074689;28;20243;-72
2023/06/08 04:46:13;;;;;;;17.53;15.40;;;15.40;99.90;;;;;;5074634;28;20247;-72
2023/06/08 04:48:40;;;;;;;18.77;16.93;;;15.50;99.90;;;;;;5074512;28;20201;-72
2023/06/08 04:51:09;;;;;;;18.77;16.95;;;15.60;99.90;;;;;;5073473;28;20205;-72
2023/06/08 04:53:37;;;;;;;17.52;15.73;;;15.70;99.90;;;;;;5074298;28;20240;-72
2023/06/08 04:56:05;;;;;;;17.98;16.48;;;15.80;99.90;;;;;;5074480;28;20204;-72
2023/06/08 04:58:32;;;;;;;16.83;15.30;;;15.90;99.90;;;;;;5074154;28;20298;-73
2023/06/08 05:00:59;;;;;;;16.90;15.05;;;16.00;99.90;;;;;;5074300;28;20672;-72
2023/06/08 05:03:27;;;;;;;17.38;15.55;;;16.10;99.90;;;;;;5074206;28;20192;-72
2023/06/08 05:05:54;;;;;;;18.60;16.98;;;16.30;99.90;;;;;;5074009;28;20243;-72
2023/06/08 05:08:21;;;;;;;19.20;17.40;;;16.50;99.90;;;;;;5074079;28;20240;-72
2023/06/08 05:10:48;;;;;;;16.08;14.73;;;16.70;99.90;;;;;;5073756;28;20733;-72
2023/06/08 05:13:15;;;;;;;15.48;14.18;;;16.90;99.90;;;;;;5073913;28;20565;-73
2023/06/08 05:15:41;;;;;;;14.07;12.88;;;17.20;99.90;;;;;;5073951;28;20197;-72
2023/06/08 05:18:08;;;;;;;14.95;13.55;;;17.40;99.90;;;;;;5073924;28;20259;-72
2023/06/08 05:20:36;;;;;;;14.13;12.75;;;17.60;99.90;;;;;;5073832;28;20197;-72
2023/06/08 05:23:03;;;;;;;14.20;12.88;;;17.70;99.90;;;;;;5073983;28;20200;-72
2023/06/08 05:25:30;;;;;;;12.80;11.70;;;17.90;99.90;;;;;;5073874;28;20250;-72
2023/06/08 05:27:57;;;;;;;13.95;12.48;;;18.00;99.90;;;;;;5073752;28;20197;-72
2023/06/08 05:30:23;;;;;;;14.27;13.07;;;18.10;99.90;;;;;;5073689;28;20201;-72
2023/06/08 05:32:50;;;;;;;15.68;14.18;;;18.30;99.90;;;;;;5073728;28;20197;-73
2023/06/08 05:35:17;;;;;;;13.52;12.20;;;18.50;99.90;;;;;;5073424;28;20606;-72
2023/06/08 05:37:45;;;;;;;13.10;11.93;;;18.50;99.90;;;;;;5073650;28;20247;-72
2023/06/08 05:40:12;;;;;;;12.68;11.57;;;18.70;99.90;;;;;;5073502;28;20228;-73
2023/06/08 05:42:39;;;;;;;12.45;11.27;;;18.80;99.90;;;;;;5073350;28;20196;-73
2023/06/08 05:45:07;;;;;;;13.02;11.93;;;19.00;99.90;;;;;;5073283;28;20652;-73
2023/06/08 05:47:33;;;;;;;12.63;11.52;;;19.00;99.90;;;;;;5073376;28;20201;-73
2023/06/08 05:50:00;;;;;;;12.00;11.00;;;19.10;99.90;;;;;;5073099;28;20201;-72
2023/06/08 05:52:26;;;;;;;12.43;11.43;;;19.20;99.90;;;;;;5073215;28;20197;-72
2023/06/08 05:54:54;;;;;;;11.90;10.80;;;19.30;99.90;;;;;;5073313;28;20546;-74
2023/06/08 05:57:21;;;;;;;11.88;10.88;;;19.70;99.90;;;;;;5073023;28;20220;-74
2023/06/08 05:59:47;;;;;;;12.02;11.07;;;20.00;99.90;;;;;;5073243;28;20302;-75
2023/06/08 06:02:14;;;;;;;11.75;10.68;;;20.20;99.90;;;;;;5072863;28;20197;-74
2023/06/08 06:04:41;;;;;;;11.13;10.23;;;20.30;99.90;;;;;;5073605;28;20251;-76
2023/06/08 06:07:08;;;;;;;12.07;11.00;;;20.30;99.90;;;;;;5073051;28;20250;-74
2023/06/08 06:09:35;;;;;;;11.38;10.25;;;20.10;99.90;;;;;;5073024;28;20197;-73
2023/06/08 06:12:03;;;;;;;11.32;10.32;;;20.00;99.90;;;;;;5072989;28;20246;-74
2023/06/08 06:14:37;;;;;;;11.82;10.73;;;19.90;99.90;;;;;;5072861;28;20259;-73
2023/06/08 06:17:04;;;;;;;12.07;11.02;;;19.80;99.90;;;;;;5073189;28;20201;-74
2023/06/08 06:19:36;;;;;;;11.55;10.60;;;19.80;99.90;;;;;;5072978;28;20225;-73
2023/06/08 06:22:02;;;;;;;10.88;9.68;;;19.80;99.90;;;;;;5073079;28;20200;-73
2023/06/08 06:24:29;;;;;;;11.80;10.90;;;19.80;99.90;;;;;;5072840;28;20296;-75
2023/06/08 06:26:56;;;;;;;11.30;10.18;;;20.00;99.90;;;;;;5072535;28;20799;-74
2023/06/08 06:29:24;;;;;;;10.13;9.32;;;19.90;99.90;;;;;;5072482;28;20251;-80
2023/06/08 06:31:51;;;;;;;11.00;10.00;;;20.30;99.90;;;;;;5072783;28;20250;-75
2023/06/08 06:34:18;;;;;;;11.43;10.45;;;20.60;99.90;;;;;;5072752;28;20205;-73
2023/06/08 06:36:45;;;;;;;10.48;9.57;;;20.70;99.90;;;;;;5072690;28;20201;-73
2023/06/08 06:39:12;;;;;;;11.15;10.15;;;21.10;99.90;;;;;;5072544;28;20286;-73
2023/06/08 06:41:39;;;;;;;9.82;9.00;;;21.20;99.90;;;;;;5072563;28;20726;-73
2023/06/08 06:44:06;;;;;;;10.73;9.40;;;21.40;99.90;;;;;;5072499;28;20196;-73
2023/06/08 06:46:33;;;;;;;10.18;9.38;;;21.40;99.90;;;;;;5072711;28;20200;-73
2023/06/08 06:49:00;;;;;;;10.90;9.85;;;21.60;99.90;;;;;;5072621;28;20201;-73
2023/06/08 06:51:27;;;;;;;10.02;9.13;;;21.60;99.90;;;;;;5072706;28;20204;-74
2023/06/08 06:53:54;;;;;;;11.23;9.80;;;21.70;99.90;;;;;;5072427;28;20225;-74
2023/06/08 06:56:20;;;;;;;10.00;9.15;;;21.90;99.90;;;;;;5072420;28;20247;-73
2023/06/08 06:58:47;;;;;;;9.75;9.05;;;22.10;99.90;;;;;;5072496;28;20266;-73
2023/06/08 07:01:15;;;;;;;9.45;8.75;;;22.20;99.90;;;;;;5071187;28;20193;-73
2023/06/08 07:03:44;;;;;;;10.32;9.52;;;22.40;99.90;;;;;;5069919;28;20652;-73
2023/06/08 07:06:11;;;;;;;9.65;8.95;;;22.40;99.90;;;;;;5069780;28;20228;-72
2023/06/08 07:08:37;;;;;;;9.77;8.93;;;22.50;99.90;;;;;;5069934;28;20315;-72
2023/06/08 07:11:04;;;;;;;9.90;8.80;;;22.40;99.90;;;;;;5069743;28;20607;-72
2023/06/08 07:13:31;;;;;;;9.23;8.52;;;22.60;99.90;;;;;;5070227;28;20270;-73
2023/06/08 07:15:58;;;;;;;10.63;9.63;;;22.60;99.90;;;;;;5074193;28;20270;-72
2023/06/08 07:18:25;;;;;;;10.65;9.60;;;22.20;99.90;;;;;;5073525;28;20660;-72
2023/06/08 07:20:53;;;;;;;10.25;9.38;;;22.10;99.90;;;;;;5075200;28;20228;-74
2023/06/08 07:23:20;;;;;;;10.43;9.48;;;21.80;99.90;;;;;;5074399;28;20197;-77
2023/06/08 07:25:46;;;;;;;10.75;9.68;;;21.80;99.90;;;;;;5075794;28;20205;-73
2023/06/08 07:28:13;;;;;;;9.77;9.02;;;21.90;99.90;;;;;;5075704;28;20342;-73
2023/06/08 07:30:40;;;;;;;9.25;8.40;;;22.10;99.90;;;;;;5075819;28;20192;-74
2023/06/08 07:33:07;;;;;;;10.20;9.30;;;22.30;99.90;;;;;;5075770;28;20254;-73
2023/06/08 07:35:33;;;;;;;10.10;9.27;;;22.40;99.90;;;;;;5075498;28;20203;-73
2023/06/08 07:38:01;;;;;;;9.65;8.85;;;22.30;99.90;;;;;;5075636;28;20197;-73
2023/06/08 07:40:28;;;;;;;10.73;9.80;;;22.30;99.90;;;;;;5075404;28;20285;-73
2023/06/08 07:42:55;;;;;;;10.82;9.82;;;22.20;99.90;;;;;;5075545;28;20201;-73
2023/06/08 07:45:21;;;;;;;9.07;8.27;;;22.30;99.90;;;;;;5075679;28;20250;-73
2023/06/08 07:47:48;;;;;;;9.77;8.98;;;22.10;99.90;;;;;;5075295;28;20660;-73
2023/06/08 07:50:15;;;;;;;9.23;8.52;;;21.90;99.90;;;;;;5075401;28;20622;-73
2023/06/08 07:52:41;;;;;;;10.38;9.05;;;21.80;99.90;;;;;;5075152;28;20197;-73
2023/06/08 07:55:10;;;;;;;10.50;9.60;;;21.80;99.90;;;;;;5075597;28;20201;-73
2023/06/08 07:57:37;;;;;;;9.82;8.93;;;21.80;99.90;;;;;;5075419;28;20247;-73
2023/06/08 08:00:05;;;;;;;9.10;8.30;;;21.90;99.90;;;;;;5075053;28;20230;-73
2023/06/08 08:02:31;;;;;;;9.25;8.35;;;21.90;99.90;;;;;;5075234;28;20208;-73
2023/06/08 08:04:58;;;;;;;9.00;8.30;;;21.90;99.90;;;;;;5075221;28;20275;-73
2023/06/08 08:07:25;;;;;;;9.15;8.43;;;22.10;99.90;;;;;;5075229;28;20731;-73
2023/06/08 08:09:51;;;;;;;8.90;8.20;;;22.40;99.90;;;;;;5075265;28;20258;-73
2023/06/08 08:12:19;;;;;;;9.48;8.57;;;22.50;99.90;;;;;;5074955;28;20644;-73
2023/06/08 08:14:46;;;;;;;8.45;7.85;;;22.80;99.90;;;;;;5075068;28;20246;-73
2023/06/08 08:17:12;;;;;;;8.43;7.72;;;23.10;99.90;;;;;;5075018;28;20607;-73
2023/06/08 08:19:40;;;;;;;8.77;8.07;;;23.40;99.90;;;;;;5074820;28;20220;-72
2023/06/08 08:22:07;;;;;;;8.30;7.60;;;23.50;99.90;;;;;;5075193;28;20208;-72
2023/06/08 08:24:35;;;;;;;8.80;7.85;;;23.40;99.90;;;;;;5074809;28;20201;-72
2023/06/08 08:27:02;;;;;;;8.65;7.68;;;23.60;99.90;;;;;;5074801;28;20201;-73
2023/06/08 08:29:30;;;;;;;8.25;7.55;;;23.80;99.90;;;;;;5074817;28;20201;-74
2023/06/08 08:31:57;;;;;;;8.10;7.32;;;24.00;99.90;;;;;;5074813;28;20197;-74
2023/06/08 08:34:23;;;;;;;8.05;7.28;;;24.00;99.90;;;;;;5074675;28;20197;-74
2023/06/08 08:36:50;;;;;;;7.90;7.10;;;23.50;99.90;;;;;;5074841;28;20572;-74
2023/06/08 08:39:16;;;;;;;7.45;6.85;;;23.50;99.90;;;;;;5074676;28;20258;-73
2023/06/08 08:41:46;;;;;;;7.40;6.70;;;23.50;99.90;;;;;;5074711;28;20251;-74
2023/06/08 08:44:15;;;;;;;7.70;7.00;;;23.30;99.90;;;;;;5074659;28;20231;-74
2023/06/08 08:46:44;;;;;;;7.30;6.80;;;23.30;99.90;;;;;;5074503;28;20197;-73
2023/06/08 08:49:15;;;;;;;7.22;6.72;;;23.00;99.90;;;;;;5074754;28;20204;-73
2023/06/08 08:51:43;;;;;;;7.63;6.82;;;22.90;99.90;;;;;;5074586;28;20623;-73
2023/06/08 08:54:12;;;;;;;7.53;6.93;;;22.80;99.90;;;;;;5074123;28;20263;-73
2023/06/08 08:56:38;;;;;;;8.73;8.02;;;22.90;99.90;;;;;;5074366;28;20201;-74
2023/06/08 08:59:07;;;;;;;8.20;7.50;;;23.00;99.90;;;;;;5074077;28;20656;-74
2023/06/08 09:01:34;;;;;;;7.82;7.05;;;23.10;99.90;;;;;;5073954;28;20229;-74
2023/06/08 09:04:03;;;;;;;8.02;7.32;;;23.20;99.90;;;;;;5074038;28;20682;-74
2023/06/08 09:06:29;;;;;;;8.75;7.95;;;23.50;99.90;;;;;;5074255;28;20247;-74
2023/06/08 09:08:57;;;;;;;11.35;7.88;;;23.80;99.90;;;;;;5074065;28;20197;-73
2023/06/08 09:11:23;;;;;;;8.40;7.72;;;24.20;99.90;;;;;;5073939;28;20273;-74
2023/06/08 09:14:07;;;;;;;8.10;7.50;;;24.50;99.90;;;;;;5073792;28;20618;-73
2023/06/08 09:16:41;;;;;;;8.15;7.47;;;24.70;99.90;;;;;;5074001;28;20208;-74
2023/06/08 09:19:09;;;;;;;8.60;7.88;;;24.80;99.90;;;;;;5073941;28;20200;-74
2023/06/08 09:21:35;;;;;;;8.27;7.55;;;25.10;99.90;;;;;;5073810;28;20225;-73
2023/06/08 09:24:12;;;;;;;8.95;8.07;;;25.10;99.90;;;;;;5073702;28;20600;-74
2023/06/08 09:26:39;;;;;;;9.35;8.40;;;24.90;99.90;;;;;;5073601;28;20199;-74
2023/06/08 09:29:06;;;;;;;8.73;7.93;;;25.10;99.90;;;;;;5073567;28;20717;-74
2023/06/08 09:31:34;;;;;;;8.65;7.95;;;25.20;99.90;;;;;;5073732;28;20280;-74
2023/06/08 09:34:06;;;;;;;9.38;8.48;;;25.30;99.90;;;;;;5073738;28;20279;-74
2023/06/08 09:36:36;;;;;;;8.10;7.50;;;25.30;99.90;;;;;;5072946;28;20204;-74
2023/06/08 09:39:05;;;;;;;9.75;8.85;;;25.30;99.90;;;;;;5073634;28;20216;-74
2023/06/08 09:41:32;;;;;;;9.52;8.73;;;25.50;99.90;;;;;;5073331;28;20225;-74
2023/06/08 09:43:59;;;;;;;9.15;8.45;;;25.50;99.90;;;;;;5073508;28;20284;-75
2023/06/08 09:46:38;;;;;;;9.20;8.30;;;25.40;99.90;;;;;;5073355;28;20280;-74
2023/06/08 09:49:07;;;;;;;9.95;9.15;;;25.20;99.90;;;;;;5073262;28;20200;-74
2023/06/08 09:51:36;;;;;;;10.85;9.50;;;24.80;99.90;;;;;;5073047;28;20616;-74
2023/06/08 09:54:04;;;;;;;10.25;9.52;;;24.50;99.90;;;;;;5072920;28;20229;-74
2023/06/08 09:56:31;;;;;;;10.10;9.30;;;24.30;99.90;;;;;;5073222;28;20593;-72
2023/06/08 09:59:03;;;;;;;10.90;9.35;;;24.50;99.90;;;;;;5073144;28;20270;-73
2023/06/08 10:01:35;;;;;;;9.55;8.60;;;25.20;99.90;;;;;;5073021;28;20246;-73
2023/06/08 10:04:08;;;;;;;10.43;9.60;;;25.80;99.90;;;;;;5073119;28;20714;-74
2023/06/08 10:06:38;;;;;;;10.55;9.75;;;25.10;99.90;;;;;;5073133;28;20246;-74
2023/06/08 10:09:10;;;;;;;10.23;9.43;;;24.80;99.90;;;;;;5073000;28;20255;-74
2023/06/08 10:11:38;;;;;;;9.88;9.05;;;24.70;99.90;;;;;;5073208;28;20205;-74
2023/06/08 10:14:04;;;;;;;10.55;9.70;;;25.00;99.90;;;;;;5072818;28;20219;-74
2023/06/08 10:16:32;;;;;;;10.57;9.57;;;25.10;99.90;;;;;;5072756;28;20621;-74
2023/06/08 10:18:59;;;;;;;11.85;10.80;;;25.10;99.90;;;;;;5073137;28;20192;-75
2023/06/08 10:21:27;;;;;;;10.90;9.98;;;25.20;99.90;;;;;;5072690;28;20229;-72
2023/06/08 10:23:56;;;;;;;10.07;9.27;;;24.90;99.90;;;;;;5072953;28;20652;-73
2023/06/08 10:26:23;;;;;;;9.40;8.70;;;25.40;99.90;;;;;;5072728;28;20219;-74
2023/06/08 10:29:04;;;;;;;9.85;9.05;;;26.50;99.90;;;;;;5072790;28;20193;-74
2023/06/08 10:31:31;;;;;;;9.15;8.45;;;26.70;99.90;;;;;;5072873;28;20219;-74
2023/06/08 10:33:59;;;;;;;9.73;8.93;;;26.80;99.90;;;;;;5072725;28;20193;-74
2023/06/08 10:36:36;;;;;;;10.07;9.18;;;26.80;99.90;;;;;;5072662;28;20209;-74
2023/06/08 10:39:10;;;;;;;9.48;8.63;;;26.70;99.90;;;;;;5072738;28;20254;-74
2023/06/08 10:41:44;;;;;;;9.15;8.45;;;26.70;99.90;;;;;;5072553;28;20327;-74
2023/06/08 10:44:31;;;;;;;9.27;8.57;;;26.30;99.90;;;;;;5072923;28;20196;-74
2023/06/08 10:47:03;;;;;;;9.15;8.38;;;26.10;99.90;;;;;;5072689;28;20331;-74
2023/06/08 10:49:31;;;;;;;9.10;8.40;;;26.30;99.90;;;;;;5074798;28;20254;-74
2023/06/08 10:51:59;;;;;;;9.23;8.52;;;26.90;99.90;;;;;;5076559;28;20228;-74
2023/06/08 10:54:28;;;;;;;9.90;9.07;;;27.00;99.90;;;;;;5076733;28;20246;-74
2023/06/08 10:56:58;;;;;;;8.48;7.88;;;27.50;99.90;;;;;;5076744;28;20230;-74
2023/06/08 10:59:32;;;;;;;8.82;8.13;;;28.20;99.90;;;;;;5076569;28;20656;-74
2023/06/08 11:02:02;;;;;;;8.52;7.82;;;28.90;99.90;;;;;;5076503;28;20234;-74
2023/06/08 11:04:29;;;;;;;7.93;7.30;;;29.60;98.10;;;;;;5076433;28;20201;-74
2023/06/08 11:06:59;;;;;;;8.13;7.45;;;30.50;95.50;;;;;;5076767;28;20288;-74
2023/06/08 11:09:30;;;;;;;7.03;6.47;;;31.30;90.70;;;;;;5076661;28;20208;-74
2023/06/08 11:11:56;;;;;;;7.70;7.10;;;32.20;85.10;;;;;;5076363;28;20207;-75
2023/06/08 11:14:23;;;;;;;7.68;6.97;;;32.70;80.60;;;;;;5076325;28;20196;-75
2023/06/08 11:16:51;;;;;;;7.03;6.32;;;32.70;75.90;;;;;;5076164;28;20193;-75
2023/06/08 11:19:18;;;;;;;7.00;6.40;;;32.80;76.00;;;;;;5076361;28;20257;-75
2023/06/08 11:21:46;;;;;;;6.88;6.20;;;33.50;72.60;;;;;;5076127;28;20224;-75
2023/06/08 11:24:14;;;;;;;6.72;6.03;;;33.90;69.30;;;;;;5076197;28;20200;-73
2023/06/08 11:26:42;;;;;;;6.90;6.40;;;33.80;66.90;;;;;;5076233;28;20206;-73
2023/06/08 11:29:09;;;;;;;6.10;5.60;;;34.90;62.90;;;;;;5076119;28;20204;-73
2023/06/08 11:31:40;;;;;;;5.93;5.38;;;35.40;60.10;;;;;;5075871;28;20192;-74
2023/06/08 11:34:07;;;;;;;6.13;5.60;;;35.90;56.30;;;;;;5076055;28;20315;-74
2023/06/08 11:36:33;;;;;;;5.85;5.30;;;36.20;53.70;;;;;;5076107;28;20208;-74
2023/06/08 11:39:02;;;;;;;5.70;5.30;;;36.10;51.80;;;;;;5075899;28;20197;-74
2023/06/08 11:41:30;;;;;;;5.80;5.40;;;35.90;50.10;;;;;;5075657;28;20564;-74
2023/06/08 11:43:58;;;;;;;5.25;4.85;;;36.40;48.70;;;;;;5075601;28;20253;-74
2023/06/08 11:46:26;;;;;;;5.65;5.15;;;37.10;46.00;;;;;;5075822;28;20269;-74
2023/06/08 11:48:53;;;;;;;4.75;4.45;;;37.80;43.10;;;;;;5075773;28;20262;-73
2023/06/08 11:51:22;;;;;;;4.68;4.30;;;37.90;38.80;;;;;;5075686;28;20204;-74
2023/06/08 11:53:49;;;;;;;4.78;4.15;;;37.20;34.70;;;;;;5075466;28;20704;-74
2023/06/08 11:56:15;;;;;;;4.70;4.40;;;36.60;32.60;;;;;;5075381;28;20196;-74
2023/06/08 11:58:42;;;;;;;4.75;4.35;;;36.60;34.00;;;;;;5075565;28;20193;-74
2023/06/08 12:01:11;;;;;;;5.45;3.85;;;36.90;33.20;;;;;;5075146;28;20224;-74
2023/06/08 12:03:45;;;;;;;4.70;4.30;;;37.10;32.00;;;;;;5075676;28;20203;-74
2023/06/08 12:06:12;;;;;;;4.78;4.30;;;36.60;31.60;;;;;;5075624;28;20243;-74
2023/06/08 12:08:40;;;;;;;4.63;4.25;;;36.00;31.70;;;;;;5075239;28;20214;-73
2023/06/08 12:11:11;;;;;;;4.53;4.22;;;34.70;32.60;;;;;;5075145;28;20204;-73
2023/06/08 12:13:39;;;;;;;5.00;4.60;;;33.70;33.40;;;;;;5075386;28;20257;-73
2023/06/08 12:16:07;;;;;;;4.95;4.55;;;32.40;33.70;;;;;;5075149;28;20196;-73
2023/06/08 12:18:39;;;;;;;5.28;4.88;;;31.40;34.90;;;;;;5075042;28;20687;-73
2023/06/08 12:21:08;;;;;;;5.28;4.88;;;30.20;37.20;;;;;;5074987;28;20216;-73
2023/06/08 12:23:34;;;;;;;6.70;5.13;;;29.50;40.00;;;;;;5075137;28;20234;-73
2023/06/08 12:26:01;;;;;;;5.35;4.95;;;29.10;41.70;;;;;;5075095;28;20262;-73
2023/06/08 12:28:28;;;;;;;6.70;5.10;;;28.80;42.90;;;;;;5074950;28;20197;-73
2023/06/08 12:30:56;;;;;;;6.38;5.35;;;28.70;43.50;;;;;;5075054;28;20217;-74
2023/06/08 12:33:24;;;;;;;5.55;5.15;;;28.20;44.90;;;;;;5074756;28;20293;-74
2023/06/08 12:35:53;;;;;;;5.80;5.30;;;27.80;44.60;;;;;;5074688;28;20197;-74
2023/06/08 12:38:21;;;;;;;5.90;5.35;;;27.60;44.80;;;;;;5074757;28;20197;-73
2023/06/08 12:40:50;;;;;;;6.18;5.60;;;27.30;45.50;;;;;;5074642;28;20274;-74